sensor_id;sensor_type;location;lat;lon;timestamp;P1;durP1;ratioP1;P2;durP2;ratioP2
52888;SDS011;41413;52.770;6.892;2022-12-16T00:01:06;38.25;;;31.45;;
52888;SDS011;41413;52.770;6.892;2022-12-16T00:03:50;39.40;;;32.90;;
52888;SDS011;41413;52.770;6.892;2022-12-16T00:06:20;38.05;;;31.65;;
52888;SDS011;41413;52.770;6.892;2022-12-16T00:08:49;35.85;;;30.00;;
52888;SDS011;41413;52.770;6.892;2022-12-16T00:11:17;38.83;;;31.55;;
52888;SDS011;41413;52.770;6.892;2022-12-16T00:13:45;43.58;;;34.00;;
52888;SDS011;41413;52.770;6.892;2022-12-16T00:16:13;40.45;;;30.58;;
52888;SDS011;41413;52.770;6.892;2022-12-16T00:18:41;37.20;;;31.25;;
52888;SDS011;41413;52.770;6.892;2022-12-16T00:21:09;35.20;;;29.52;;
52888;SDS011;41413;52.770;6.892;2022-12-16T00:23:36;42.97;;;30.00;;
52888;SDS011;41413;52.770;6.892;2022-12-16T00:26:04;46.25;;;32.20;;
52888;SDS011;41413;52.770;6.892;2022-12-16T00:28:31;39.88;;;32.40;;
52888;SDS011;41413;52.770;6.892;2022-12-16T00:30:58;35.25;;;30.50;;
52888;SDS011;41413;52.770;6.892;2022-12-16T00:33:25;43.65;;;32.25;;
52888;SDS011;41413;52.770;6.892;2022-12-16T00:35:53;39.38;;;32.55;;
52888;SDS011;41413;52.770;6.892;2022-12-16T00:38:20;40.88;;;32.33;;
52888;SDS011;41413;52.770;6.892;2022-12-16T00:40:49;39.22;;;29.55;;
52888;SDS011;41413;52.770;6.892;2022-12-16T00:43:17;37.17;;;30.98;;
52888;SDS011;41413;52.770;6.892;2022-12-16T00:45:45;42.70;;;33.70;;
52888;SDS011;41413;52.770;6.892;2022-12-16T00:48:12;39.33;;;32.35;;
52888;SDS011;41413;52.770;6.892;2022-12-16T00:50:40;46.65;;;31.67;;
52888;SDS011;41413;52.770;6.892;2022-12-16T00:53:09;41.65;;;32.50;;
52888;SDS011;41413;52.770;6.892;2022-12-16T00:55:35;43.63;;;32.67;;
52888;SDS011;41413;52.770;6.892;2022-12-16T00:58:02;37.72;;;32.10;;
52888;SDS011;41413;52.770;6.892;2022-12-16T01:00:29;45.15;;;35.55;;
52888;SDS011;41413;52.770;6.892;2022-12-16T01:02:55;38.72;;;32.17;;
52888;SDS011;41413;52.770;6.892;2022-12-16T01:05:22;38.38;;;30.60;;
52888;SDS011;41413;52.770;6.892;2022-12-16T01:07:53;42.75;;;31.75;;
52888;SDS011;41413;52.770;6.892;2022-12-16T01:10:20;39.85;;;32.47;;
52888;SDS011;41413;52.770;6.892;2022-12-16T01:12:48;41.40;;;33.75;;
52888;SDS011;41413;52.770;6.892;2022-12-16T01:15:16;42.10;;;32.85;;
52888;SDS011;41413;52.770;6.892;2022-12-16T01:17:43;44.13;;;34.25;;
52888;SDS011;41413;52.770;6.892;2022-12-16T01:20:10;40.40;;;31.52;;
52888;SDS011;41413;52.770;6.892;2022-12-16T01:22:38;44.63;;;34.78;;
52888;SDS011;41413;52.770;6.892;2022-12-16T01:25:05;42.65;;;34.55;;
52888;SDS011;41413;52.770;6.892;2022-12-16T01:27:32;43.05;;;34.33;;
52888;SDS011;41413;52.770;6.892;2022-12-16T01:29:58;47.28;;;33.47;;
52888;SDS011;41413;52.770;6.892;2022-12-16T01:32:25;44.67;;;34.30;;
52888;SDS011;41413;52.770;6.892;2022-12-16T01:34:52;41.13;;;33.42;;
52888;SDS011;41413;52.770;6.892;2022-12-16T01:37:21;46.80;;;33.58;;
52888;SDS011;41413;52.770;6.892;2022-12-16T01:39:49;41.80;;;33.88;;
52888;SDS011;41413;52.770;6.892;2022-12-16T01:42:17;44.13;;;33.78;;
52888;SDS011;41413;52.770;6.892;2022-12-16T01:44:48;38.72;;;34.30;;
52888;SDS011;41413;52.770;6.892;2022-12-16T01:47:24;45.92;;;35.50;;
52888;SDS011;41413;52.770;6.892;2022-12-16T01:49:58;44.10;;;35.90;;
52888;SDS011;41413;52.770;6.892;2022-12-16T01:52:31;45.45;;;40.58;;
52888;SDS011;41413;52.770;6.892;2022-12-16T01:55:03;42.67;;;32.65;;
52888;SDS011;41413;52.770;6.892;2022-12-16T01:57:35;36.80;;;31.58;;
52888;SDS011;41413;52.770;6.892;2022-12-16T02:00:06;44.95;;;34.35;;
52888;SDS011;41413;52.770;6.892;2022-12-16T02:02:34;47.40;;;35.47;;
52888;SDS011;41413;52.770;6.892;2022-12-16T02:05:01;39.70;;;32.47;;
52888;SDS011;41413;52.770;6.892;2022-12-16T02:07:58;42.38;;;34.10;;
52888;SDS011;41413;52.770;6.892;2022-12-16T02:15:50;43.67;;;33.75;;
52888;SDS011;41413;52.770;6.892;2022-12-16T02:21:45;46.88;;;34.40;;
52888;SDS011;41413;52.770;6.892;2022-12-16T02:32:36;46.65;;;34.20;;
52888;SDS011;41413;52.770;6.892;2022-12-16T02:38:26;48.33;;;35.97;;
52888;SDS011;41413;52.770;6.892;2022-12-16T02:41:20;54.33;;;37.50;;
52888;SDS011;41413;52.770;6.892;2022-12-16T02:44:02;50.58;;;37.63;;
52888;SDS011;41413;52.770;6.892;2022-12-16T02:46:37;44.60;;;35.55;;
52888;SDS011;41413;52.770;6.892;2022-12-16T02:51:38;48.08;;;36.25;;
52888;SDS011;41413;52.770;6.892;2022-12-16T02:54:05;44.78;;;35.25;;
52888;SDS011;41413;52.770;6.892;2022-12-16T03:04:39;46.45;;;35.33;;
52888;SDS011;41413;52.770;6.892;2022-12-16T03:07:17;47.13;;;36.30;;
52888;SDS011;41413;52.770;6.892;2022-12-16T03:09:48;45.20;;;36.90;;
52888;SDS011;41413;52.770;6.892;2022-12-16T03:12:17;50.80;;;38.17;;
52888;SDS011;41413;52.770;6.892;2022-12-16T03:14:47;52.35;;;39.75;;
52888;SDS011;41413;52.770;6.892;2022-12-16T03:17:16;52.95;;;40.33;;
52888;SDS011;41413;52.770;6.892;2022-12-16T03:19:47;51.22;;;38.95;;
52888;SDS011;41413;52.770;6.892;2022-12-16T03:22:20;44.33;;;36.10;;
52888;SDS011;41413;52.770;6.892;2022-12-16T03:24:51;55.25;;;38.72;;
52888;SDS011;41413;52.770;6.892;2022-12-16T03:27:20;44.65;;;35.47;;
52888;SDS011;41413;52.770;6.892;2022-12-16T03:29:52;50.35;;;36.90;;
52888;SDS011;41413;52.770;6.892;2022-12-16T03:32:22;47.75;;;36.47;;
52888;SDS011;41413;52.770;6.892;2022-12-16T03:34:58;48.60;;;35.40;;
52888;SDS011;41413;52.770;6.892;2022-12-16T03:37:33;46.17;;;36.72;;
52888;SDS011;41413;52.770;6.892;2022-12-16T03:40:03;49.40;;;36.50;;
52888;SDS011;41413;52.770;6.892;2022-12-16T03:42:33;49.70;;;38.40;;
52888;SDS011;41413;52.770;6.892;2022-12-16T03:45:01;50.42;;;38.28;;
52888;SDS011;41413;52.770;6.892;2022-12-16T03:47:30;48.00;;;37.47;;
52888;SDS011;41413;52.770;6.892;2022-12-16T03:49:57;43.47;;;35.38;;
52888;SDS011;41413;52.770;6.892;2022-12-16T03:52:24;58.35;;;43.00;;
52888;SDS011;41413;52.770;6.892;2022-12-16T03:54:50;51.58;;;37.03;;
52888;SDS011;41413;52.770;6.892;2022-12-16T03:57:17;47.85;;;37.17;;
52888;SDS011;41413;52.770;6.892;2022-12-16T03:59:44;47.35;;;36.38;;
52888;SDS011;41413;52.770;6.892;2022-12-16T04:02:11;49.10;;;36.58;;
52888;SDS011;41413;52.770;6.892;2022-12-16T04:04:38;49.70;;;35.50;;
52888;SDS011;41413;52.770;6.892;2022-12-16T04:07:04;46.97;;;37.05;;
52888;SDS011;41413;52.770;6.892;2022-12-16T04:09:47;49.80;;;35.85;;
52888;SDS011;41413;52.770;6.892;2022-12-16T04:12:14;46.15;;;36.60;;
52888;SDS011;41413;52.770;6.892;2022-12-16T04:14:59;42.20;;;36.43;;
52888;SDS011;41413;52.770;6.892;2022-12-16T04:17:44;53.70;;;38.65;;
52888;SDS011;41413;52.770;6.892;2022-12-16T04:20:31;56.83;;;40.28;;
52888;SDS011;41413;52.770;6.892;2022-12-16T04:23:20;44.08;;;37.15;;
52888;SDS011;41413;52.770;6.892;2022-12-16T04:26:08;44.13;;;35.67;;
52888;SDS011;41413;52.770;6.892;2022-12-16T04:28:35;46.83;;;36.78;;
52888;SDS011;41413;52.770;6.892;2022-12-16T04:31:01;52.92;;;37.85;;
52888;SDS011;41413;52.770;6.892;2022-12-16T04:33:29;50.60;;;38.55;;
52888;SDS011;41413;52.770;6.892;2022-12-16T04:36:14;47.15;;;36.90;;
52888;SDS011;41413;52.770;6.892;2022-12-16T04:39:00;46.45;;;38.20;;
52888;SDS011;41413;52.770;6.892;2022-12-16T04:41:45;50.25;;;36.00;;
52888;SDS011;41413;52.770;6.892;2022-12-16T04:44:31;43.38;;;36.63;;
52888;SDS011;41413;52.770;6.892;2022-12-16T04:47:16;46.97;;;35.63;;
52888;SDS011;41413;52.770;6.892;2022-12-16T04:50:02;46.33;;;36.45;;
52888;SDS011;41413;52.770;6.892;2022-12-16T04:52:49;50.58;;;38.75;;
52888;SDS011;41413;52.770;6.892;2022-12-16T04:55:35;42.60;;;34.05;;
52888;SDS011;41413;52.770;6.892;2022-12-16T04:58:28;51.70;;;35.92;;
52888;SDS011;41413;52.770;6.892;2022-12-16T05:01:14;47.78;;;32.70;;
52888;SDS011;41413;52.770;6.892;2022-12-16T05:03:59;42.53;;;35.78;;
52888;SDS011;41413;52.770;6.892;2022-12-16T05:06:44;47.93;;;35.50;;
52888;SDS011;41413;52.770;6.892;2022-12-16T05:09:30;49.20;;;36.33;;
52888;SDS011;41413;52.770;6.892;2022-12-16T05:12:15;45.28;;;35.28;;
52888;SDS011;41413;52.770;6.892;2022-12-16T05:15:01;41.05;;;33.75;;
52888;SDS011;41413;52.770;6.892;2022-12-16T05:17:46;48.17;;;34.95;;
52888;SDS011;41413;52.770;6.892;2022-12-16T05:20:31;47.10;;;36.28;;
52888;SDS011;41413;52.770;6.892;2022-12-16T05:23:17;43.60;;;36.78;;
52888;SDS011;41413;52.770;6.892;2022-12-16T05:26:02;51.65;;;38.40;;
52888;SDS011;41413;52.770;6.892;2022-12-16T05:28:47;50.90;;;36.40;;
52888;SDS011;41413;52.770;6.892;2022-12-16T05:31:33;46.90;;;35.17;;
52888;SDS011;41413;52.770;6.892;2022-12-16T05:34:18;45.58;;;35.92;;
52888;SDS011;41413;52.770;6.892;2022-12-16T05:37:04;47.58;;;35.70;;
52888;SDS011;41413;52.770;6.892;2022-12-16T05:39:50;47.03;;;35.35;;
52888;SDS011;41413;52.770;6.892;2022-12-16T05:42:35;42.97;;;36.45;;
52888;SDS011;41413;52.770;6.892;2022-12-16T05:45:21;46.60;;;35.25;;
52888;SDS011;41413;52.770;6.892;2022-12-16T05:48:06;46.13;;;35.80;;
52888;SDS011;41413;52.770;6.892;2022-12-16T05:50:51;55.50;;;37.03;;
52888;SDS011;41413;52.770;6.892;2022-12-16T05:53:37;46.90;;;36.25;;
52888;SDS011;41413;52.770;6.892;2022-12-16T05:56:22;42.78;;;32.70;;
52888;SDS011;41413;52.770;6.892;2022-12-16T05:59:07;42.95;;;33.47;;
52888;SDS011;41413;52.770;6.892;2022-12-16T06:01:53;46.97;;;33.90;;
52888;SDS011;41413;52.770;6.892;2022-12-16T06:04:39;45.97;;;34.33;;
52888;SDS011;41413;52.770;6.892;2022-12-16T06:07:24;50.77;;;34.83;;
52888;SDS011;41413;52.770;6.892;2022-12-16T06:10:09;42.15;;;34.15;;
52888;SDS011;41413;52.770;6.892;2022-12-16T06:12:54;40.38;;;32.75;;
52888;SDS011;41413;52.770;6.892;2022-12-16T06:15:40;39.38;;;32.78;;
52888;SDS011;41413;52.770;6.892;2022-12-16T06:18:33;44.15;;;35.00;;
52888;SDS011;41413;52.770;6.892;2022-12-16T06:21:18;47.88;;;34.63;;
52888;SDS011;41413;52.770;6.892;2022-12-16T06:24:03;42.80;;;35.17;;
52888;SDS011;41413;52.770;6.892;2022-12-16T06:26:49;47.40;;;32.35;;
52888;SDS011;41413;52.770;6.892;2022-12-16T06:29:34;44.13;;;35.22;;
52888;SDS011;41413;52.770;6.892;2022-12-16T06:32:20;42.67;;;33.13;;
52888;SDS011;41413;52.770;6.892;2022-12-16T06:35:05;40.03;;;32.70;;
52888;SDS011;41413;52.770;6.892;2022-12-16T06:37:51;39.70;;;33.10;;
52888;SDS011;41413;52.770;6.892;2022-12-16T06:40:36;39.10;;;32.90;;
52888;SDS011;41413;52.770;6.892;2022-12-16T06:43:21;46.80;;;34.78;;
52888;SDS011;41413;52.770;6.892;2022-12-16T06:46:07;40.17;;;31.63;;
52888;SDS011;41413;52.770;6.892;2022-12-16T06:48:52;41.17;;;33.47;;
52888;SDS011;41413;52.770;6.892;2022-12-16T06:51:38;42.90;;;34.28;;
52888;SDS011;41413;52.770;6.892;2022-12-16T06:54:23;40.83;;;31.88;;
52888;SDS011;41413;52.770;6.892;2022-12-16T06:57:08;51.55;;;38.88;;
52888;SDS011;41413;52.770;6.892;2022-12-16T06:59:54;47.15;;;39.60;;
52888;SDS011;41413;52.770;6.892;2022-12-16T07:02:39;47.90;;;37.50;;
52888;SDS011;41413;52.770;6.892;2022-12-16T07:05:25;46.28;;;37.50;;
52888;SDS011;41413;52.770;6.892;2022-12-16T07:08:10;48.97;;;37.97;;
52888;SDS011;41413;52.770;6.892;2022-12-16T07:10:55;48.10;;;36.13;;
52888;SDS011;41413;52.770;6.892;2022-12-16T07:13:42;52.20;;;39.20;;
52888;SDS011;41413;52.770;6.892;2022-12-16T07:16:28;50.38;;;38.08;;
52888;SDS011;41413;52.770;6.892;2022-12-16T07:19:14;51.22;;;38.65;;
52888;SDS011;41413;52.770;6.892;2022-12-16T07:21:59;51.67;;;38.47;;
52888;SDS011;41413;52.770;6.892;2022-12-16T07:24:44;58.65;;;39.83;;
52888;SDS011;41413;52.770;6.892;2022-12-16T07:27:30;49.97;;;38.17;;
52888;SDS011;41413;52.770;6.892;2022-12-16T07:30:15;49.97;;;36.25;;
52888;SDS011;41413;52.770;6.892;2022-12-16T07:33:01;58.90;;;38.90;;
52888;SDS011;41413;52.770;6.892;2022-12-16T07:35:46;65.20;;;38.08;;
52888;SDS011;41413;52.770;6.892;2022-12-16T07:38:31;46.58;;;37.88;;
52888;SDS011;41413;52.770;6.892;2022-12-16T07:41:17;53.58;;;37.58;;
52888;SDS011;41413;52.770;6.892;2022-12-16T07:44:02;49.38;;;36.88;;
52888;SDS011;41413;52.770;6.892;2022-12-16T07:46:48;51.13;;;36.65;;
52888;SDS011;41413;52.770;6.892;2022-12-16T07:49:33;48.53;;;37.45;;
52888;SDS011;41413;52.770;6.892;2022-12-16T07:52:20;45.40;;;36.30;;
52888;SDS011;41413;52.770;6.892;2022-12-16T07:55:06;57.33;;;38.47;;
52888;SDS011;41413;52.770;6.892;2022-12-16T07:57:51;53.30;;;39.00;;
52888;SDS011;41413;52.770;6.892;2022-12-16T08:00:37;65.35;;;38.78;;
52888;SDS011;41413;52.770;6.892;2022-12-16T08:03:22;56.15;;;37.55;;
52888;SDS011;41413;52.770;6.892;2022-12-16T08:06:07;49.90;;;38.55;;
52888;SDS011;41413;52.770;6.892;2022-12-16T08:08:53;58.55;;;39.00;;
52888;SDS011;41413;52.770;6.892;2022-12-16T08:11:38;60.70;;;39.95;;
52888;SDS011;41413;52.770;6.892;2022-12-16T08:14:24;63.88;;;38.05;;
52888;SDS011;41413;52.770;6.892;2022-12-16T08:17:09;52.92;;;38.85;;
52888;SDS011;41413;52.770;6.892;2022-12-16T08:19:54;53.95;;;38.47;;
52888;SDS011;41413;52.770;6.892;2022-12-16T08:22:40;55.35;;;39.55;;
52888;SDS011;41413;52.770;6.892;2022-12-16T08:25:25;54.67;;;38.28;;
52888;SDS011;41413;52.770;6.892;2022-12-16T08:28:11;52.17;;;39.35;;
52888;SDS011;41413;52.770;6.892;2022-12-16T08:30:56;52.05;;;38.13;;
52888;SDS011;41413;52.770;6.892;2022-12-16T08:33:42;58.10;;;37.35;;
52888;SDS011;41413;52.770;6.892;2022-12-16T08:36:27;61.28;;;40.88;;
52888;SDS011;41413;52.770;6.892;2022-12-16T08:39:12;54.90;;;38.65;;
52888;SDS011;41413;52.770;6.892;2022-12-16T08:41:58;51.50;;;39.58;;
52888;SDS011;41413;52.770;6.892;2022-12-16T08:44:43;47.97;;;36.83;;
52888;SDS011;41413;52.770;6.892;2022-12-16T08:47:29;53.00;;;37.10;;
52888;SDS011;41413;52.770;6.892;2022-12-16T08:50:14;47.33;;;35.15;;
52888;SDS011;41413;52.770;6.892;2022-12-16T08:52:59;57.83;;;39.67;;
52888;SDS011;41413;52.770;6.892;2022-12-16T08:55:45;54.33;;;40.90;;
52888;SDS011;41413;52.770;6.892;2022-12-16T08:58:30;56.28;;;39.47;;
52888;SDS011;41413;52.770;6.892;2022-12-16T09:01:17;50.05;;;37.00;;
52888;SDS011;41413;52.770;6.892;2022-12-16T09:04:03;55.05;;;38.33;;
52888;SDS011;41413;52.770;6.892;2022-12-16T09:06:48;55.13;;;39.10;;
52888;SDS011;41413;52.770;6.892;2022-12-16T09:09:34;57.10;;;37.60;;
52888;SDS011;41413;52.770;6.892;2022-12-16T09:12:19;56.28;;;38.85;;
52888;SDS011;41413;52.770;6.892;2022-12-16T09:15:04;60.13;;;38.60;;
52888;SDS011;41413;52.770;6.892;2022-12-16T09:17:53;50.22;;;38.00;;
52888;SDS011;41413;52.770;6.892;2022-12-16T09:20:39;57.70;;;40.80;;
52888;SDS011;41413;52.770;6.892;2022-12-16T09:23:25;69.82;;;45.03;;
52888;SDS011;41413;52.770;6.892;2022-12-16T09:26:10;63.65;;;45.20;;
52888;SDS011;41413;52.770;6.892;2022-12-16T09:28:56;56.33;;;41.13;;
52888;SDS011;41413;52.770;6.892;2022-12-16T09:31:41;62.07;;;42.37;;
52888;SDS011;41413;52.770;6.892;2022-12-16T09:34:26;61.50;;;41.05;;
52888;SDS011;41413;52.770;6.892;2022-12-16T09:37:12;65.03;;;40.90;;
52888;SDS011;41413;52.770;6.892;2022-12-16T09:39:57;59.63;;;43.65;;
52888;SDS011;41413;52.770;6.892;2022-12-16T09:48:43;63.40;;;43.13;;
52888;SDS011;41413;52.770;6.892;2022-12-16T09:51:49;63.05;;;42.40;;
52888;SDS011;41413;52.770;6.892;2022-12-16T09:54:43;79.22;;;47.50;;
52888;SDS011;41413;52.770;6.892;2022-12-16T09:57:43;66.03;;;41.42;;
52888;SDS011;41413;52.770;6.892;2022-12-16T10:00:29;62.45;;;44.08;;
52888;SDS011;41413;52.770;6.892;2022-12-16T10:03:20;68.90;;;45.80;;
52888;SDS011;41413;52.770;6.892;2022-12-16T10:06:16;73.57;;;46.25;;
52888;SDS011;41413;52.770;6.892;2022-12-16T10:12:36;64.10;;;43.60;;
52888;SDS011;41413;52.770;6.892;2022-12-16T10:21:47;64.65;;;42.60;;
52888;SDS011;41413;52.770;6.892;2022-12-16T10:24:48;62.50;;;42.22;;
52888;SDS011;41413;52.770;6.892;2022-12-16T10:27:46;72.15;;;44.83;;
52888;SDS011;41413;52.770;6.892;2022-12-16T10:30:33;75.90;;;45.67;;
52888;SDS011;41413;52.770;6.892;2022-12-16T10:33:21;68.90;;;45.35;;
52888;SDS011;41413;52.770;6.892;2022-12-16T10:36:17;67.30;;;45.97;;
52888;SDS011;41413;52.770;6.892;2022-12-16T10:39:27;64.78;;;43.28;;
52888;SDS011;41413;52.770;6.892;2022-12-16T10:42:21;65.82;;;41.70;;
52888;SDS011;41413;52.770;6.892;2022-12-16T10:45:53;70.30;;;52.97;;
52888;SDS011;41413;52.770;6.892;2022-12-16T10:48:26;68.93;;;45.72;;
52888;SDS011;41413;52.770;6.892;2022-12-16T10:51:22;72.68;;;44.55;;
52888;SDS011;41413;52.770;6.892;2022-12-16T10:57:26;65.00;;;43.30;;
52888;SDS011;41413;52.770;6.892;2022-12-16T11:00:20;64.50;;;43.30;;
52888;SDS011;41413;52.770;6.892;2022-12-16T11:03:24;64.07;;;45.90;;
52888;SDS011;41413;52.770;6.892;2022-12-16T11:06:12;64.30;;;40.97;;
52888;SDS011;41413;52.770;6.892;2022-12-16T11:15:26;76.13;;;45.60;;
52888;SDS011;41413;52.770;6.892;2022-12-16T11:18:17;66.85;;;45.78;;
52888;SDS011;41413;52.770;6.892;2022-12-16T11:21:14;69.32;;;44.22;;
52888;SDS011;41413;52.770;6.892;2022-12-16T11:24:12;67.82;;;45.00;;
52888;SDS011;41413;52.770;6.892;2022-12-16T11:27:01;68.60;;;43.92;;
52888;SDS011;41413;52.770;6.892;2022-12-16T11:29:49;69.38;;;45.00;;
52888;SDS011;41413;52.770;6.892;2022-12-16T11:32:49;68.50;;;43.00;;
52888;SDS011;41413;52.770;6.892;2022-12-16T11:35:39;63.13;;;44.70;;
52888;SDS011;41413;52.770;6.892;2022-12-16T11:38:34;63.08;;;43.40;;
52888;SDS011;41413;52.770;6.892;2022-12-16T11:41:27;62.35;;;44.30;;
52888;SDS011;41413;52.770;6.892;2022-12-16T11:44:19;64.72;;;45.05;;
52888;SDS011;41413;52.770;6.892;2022-12-16T11:47:13;71.75;;;44.92;;
52888;SDS011;41413;52.770;6.892;2022-12-16T11:51:08;76.03;;;46.38;;
52888;SDS011;41413;52.770;6.892;2022-12-16T11:53:51;59.80;;;43.70;;
52888;SDS011;41413;52.770;6.892;2022-12-16T11:56:43;67.97;;;45.75;;
52888;SDS011;41413;52.770;6.892;2022-12-16T11:59:41;69.35;;;46.55;;
52888;SDS011;41413;52.770;6.892;2022-12-16T12:02:40;73.63;;;46.70;;
52888;SDS011;41413;52.770;6.892;2022-12-16T12:05:56;79.57;;;47.47;;
52888;SDS011;41413;52.770;6.892;2022-12-16T12:08:59;70.50;;;43.97;;
52888;SDS011;41413;52.770;6.892;2022-12-16T12:27:28;73.40;;;49.15;;
52888;SDS011;41413;52.770;6.892;2022-12-16T12:44:41;84.32;;;50.17;;
52888;SDS011;41413;52.770;6.892;2022-12-16T12:47:35;77.43;;;49.47;;
52888;SDS011;41413;52.770;6.892;2022-12-16T12:50:30;77.57;;;49.03;;
52888;SDS011;41413;52.770;6.892;2022-12-16T12:53:38;79.03;;;50.65;;
52888;SDS011;41413;52.770;6.892;2022-12-16T12:56:48;80.03;;;52.75;;
52888;SDS011;41413;52.770;6.892;2022-12-16T13:05:51;81.63;;;54.38;;
52888;SDS011;41413;52.770;6.892;2022-12-16T13:08:46;80.32;;;51.35;;
52888;SDS011;41413;52.770;6.892;2022-12-16T13:20:54;87.90;;;52.42;;
52888;SDS011;41413;52.770;6.892;2022-12-16T13:23:44;89.32;;;53.25;;
52888;SDS011;41413;52.770;6.892;2022-12-16T13:26:31;93.53;;;53.55;;
52888;SDS011;41413;52.770;6.892;2022-12-16T13:29:20;92.35;;;55.53;;
52888;SDS011;41413;52.770;6.892;2022-12-16T13:44:10;90.10;;;56.50;;
52888;SDS011;41413;52.770;6.892;2022-12-16T13:46:56;94.10;;;60.35;;
52888;SDS011;41413;52.770;6.892;2022-12-16T13:55:41;107.82;;;61.65;;
52888;SDS011;41413;52.770;6.892;2022-12-16T13:58:49;99.45;;;57.25;;
52888;SDS011;41413;52.770;6.892;2022-12-16T14:01:37;99.18;;;61.35;;
52888;SDS011;41413;52.770;6.892;2022-12-16T14:04:35;97.40;;;56.60;;
52888;SDS011;41413;52.770;6.892;2022-12-16T14:07:32;95.55;;;54.90;;
52888;SDS011;41413;52.770;6.892;2022-12-16T14:10:38;99.95;;;68.38;;
52888;SDS011;41413;52.770;6.892;2022-12-16T14:23:11;101.30;;;58.13;;
52888;SDS011;41413;52.770;6.892;2022-12-16T14:26:23;96.53;;;59.08;;
52888;SDS011;41413;52.770;6.892;2022-12-16T14:29:20;118.18;;;71.97;;
52888;SDS011;41413;52.770;6.892;2022-12-16T14:32:27;105.28;;;73.47;;
52888;SDS011;41413;52.770;6.892;2022-12-16T14:35:15;108.18;;;62.83;;
52888;SDS011;41413;52.770;6.892;2022-12-16T14:38:25;101.13;;;61.95;;
52888;SDS011;41413;52.770;6.892;2022-12-16T14:43:58;104.78;;;61.88;;
52888;SDS011;41413;52.770;6.892;2022-12-16T14:46:47;97.30;;;62.33;;
52888;SDS011;41413;52.770;6.892;2022-12-16T14:49:34;101.75;;;61.67;;
52888;SDS011;41413;52.770;6.892;2022-12-16T14:55:14;97.28;;;59.20;;
52888;SDS011;41413;52.770;6.892;2022-12-16T14:58:07;109.38;;;62.55;;
52888;SDS011;41413;52.770;6.892;2022-12-16T15:00:56;123.63;;;64.05;;
52888;SDS011;41413;52.770;6.892;2022-12-16T15:03:44;107.93;;;59.85;;
52888;SDS011;41413;52.770;6.892;2022-12-16T15:06:39;118.50;;;80.88;;
52888;SDS011;41413;52.770;6.892;2022-12-16T15:12:27;106.18;;;64.30;;
52888;SDS011;41413;52.770;6.892;2022-12-16T15:15:25;119.22;;;76.10;;
52888;SDS011;41413;52.770;6.892;2022-12-16T15:18:39;115.20;;;68.00;;
52888;SDS011;41413;52.770;6.892;2022-12-16T15:21:28;102.33;;;61.07;;
52888;SDS011;41413;52.770;6.892;2022-12-16T15:24:21;108.68;;;63.25;;
52888;SDS011;41413;52.770;6.892;2022-12-16T15:33:18;109.53;;;66.38;;
52888;SDS011;41413;52.770;6.892;2022-12-16T15:36:06;105.55;;;62.78;;
52888;SDS011;41413;52.770;6.892;2022-12-16T15:39:19;113.47;;;61.67;;
52888;SDS011;41413;52.770;6.892;2022-12-16T15:42:16;125.13;;;67.03;;
52888;SDS011;41413;52.770;6.892;2022-12-16T15:45:14;120.85;;;66.28;;
52888;SDS011;41413;52.770;6.892;2022-12-16T15:48:00;122.22;;;66.88;;
52888;SDS011;41413;52.770;6.892;2022-12-16T15:50:55;114.90;;;64.88;;
52888;SDS011;41413;52.770;6.892;2022-12-16T15:53:40;116.95;;;70.55;;
52888;SDS011;41413;52.770;6.892;2022-12-16T15:56:32;126.00;;;67.50;;
52888;SDS011;41413;52.770;6.892;2022-12-16T15:59:26;111.35;;;64.63;;
52888;SDS011;41413;52.770;6.892;2022-12-16T16:05:22;117.88;;;66.88;;
52888;SDS011;41413;52.770;6.892;2022-12-16T16:08:11;111.78;;;62.33;;
52888;SDS011;41413;52.770;6.892;2022-12-16T16:10:56;111.97;;;66.10;;
52888;SDS011;41413;52.770;6.892;2022-12-16T16:13:41;102.57;;;61.95;;
52888;SDS011;41413;52.770;6.892;2022-12-16T16:16:34;107.22;;;61.97;;
52888;SDS011;41413;52.770;6.892;2022-12-16T16:19:20;112.18;;;61.80;;
52888;SDS011;41413;52.770;6.892;2022-12-16T16:22:10;112.55;;;61.78;;
52888;SDS011;41413;52.770;6.892;2022-12-16T16:24:57;98.72;;;57.80;;
52888;SDS011;41413;52.770;6.892;2022-12-16T16:27:42;121.30;;;68.97;;
52888;SDS011;41413;52.770;6.892;2022-12-16T16:30:27;110.18;;;62.90;;
52888;SDS011;41413;52.770;6.892;2022-12-16T16:33:13;106.60;;;63.45;;
52888;SDS011;41413;52.770;6.892;2022-12-16T16:35:59;120.05;;;70.22;;
52888;SDS011;41413;52.770;6.892;2022-12-16T16:38:44;117.93;;;68.45;;
52888;SDS011;41413;52.770;6.892;2022-12-16T16:41:29;118.60;;;69.50;;
52888;SDS011;41413;52.770;6.892;2022-12-16T16:44:15;115.35;;;68.32;;
52888;SDS011;41413;52.770;6.892;2022-12-16T16:47:00;105.50;;;63.90;;
52888;SDS011;41413;52.770;6.892;2022-12-16T16:49:46;109.53;;;64.45;;
52888;SDS011;41413;52.770;6.892;2022-12-16T16:55:18;103.60;;;57.97;;
52888;SDS011;41413;52.770;6.892;2022-12-16T16:58:06;110.53;;;62.83;;
52888;SDS011;41413;52.770;6.892;2022-12-16T17:00:55;109.80;;;59.45;;
52888;SDS011;41413;52.770;6.892;2022-12-16T17:03:41;100.38;;;57.65;;
52888;SDS011;41413;52.770;6.892;2022-12-16T17:06:27;100.70;;;59.40;;
52888;SDS011;41413;52.770;6.892;2022-12-16T17:09:23;109.18;;;60.55;;
52888;SDS011;41413;52.770;6.892;2022-12-16T17:12:19;116.85;;;61.92;;
52888;SDS011;41413;52.770;6.892;2022-12-16T17:18:00;113.53;;;66.40;;
52888;SDS011;41413;52.770;6.892;2022-12-16T17:20:45;127.00;;;80.07;;
52888;SDS011;41413;52.770;6.892;2022-12-16T17:23:31;101.90;;;61.55;;
52888;SDS011;41413;52.770;6.892;2022-12-16T17:26:16;118.50;;;77.82;;
52888;SDS011;41413;52.770;6.892;2022-12-16T17:29:02;112.47;;;57.33;;
52888;SDS011;41413;52.770;6.892;2022-12-16T17:31:48;105.75;;;58.03;;
52888;SDS011;41413;52.770;6.892;2022-12-16T17:34:33;100.80;;;58.95;;
52888;SDS011;41413;52.770;6.892;2022-12-16T17:37:19;107.65;;;60.70;;
52888;SDS011;41413;52.770;6.892;2022-12-16T17:40:04;108.90;;;67.03;;
52888;SDS011;41413;52.770;6.892;2022-12-16T17:42:49;114.93;;;64.30;;
52888;SDS011;41413;52.770;6.892;2022-12-16T17:45:35;103.53;;;62.10;;
52888;SDS011;41413;52.770;6.892;2022-12-16T17:48:37;111.18;;;61.47;;
52888;SDS011;41413;52.770;6.892;2022-12-16T17:51:22;115.28;;;70.75;;
52888;SDS011;41413;52.770;6.892;2022-12-16T17:54:07;111.35;;;67.13;;
52888;SDS011;41413;52.770;6.892;2022-12-16T17:56:54;120.45;;;68.55;;
52888;SDS011;41413;52.770;6.892;2022-12-16T17:59:40;106.40;;;61.28;;
52888;SDS011;41413;52.770;6.892;2022-12-16T18:02:25;113.47;;;64.18;;
52888;SDS011;41413;52.770;6.892;2022-12-16T18:05:10;132.07;;;82.30;;
52888;SDS011;41413;52.770;6.892;2022-12-16T18:08:07;124.55;;;63.53;;
52888;SDS011;41413;52.770;6.892;2022-12-16T18:10:53;131.55;;;68.68;;
52888;SDS011;41413;52.770;6.892;2022-12-16T18:13:40;118.55;;;64.68;;
52888;SDS011;41413;52.770;6.892;2022-12-16T18:16:26;114.40;;;77.43;;
52888;SDS011;41413;52.770;6.892;2022-12-16T18:19:58;105.85;;;62.42;;
52888;SDS011;41413;52.770;6.892;2022-12-16T18:22:44;106.00;;;61.20;;
52888;SDS011;41413;52.770;6.892;2022-12-16T18:25:32;110.60;;;60.08;;
52888;SDS011;41413;52.770;6.892;2022-12-16T18:28:17;100.20;;;57.45;;
52888;SDS011;41413;52.770;6.892;2022-12-16T18:31:03;108.63;;;62.47;;